sensor_id;sensor_type;location;lat;lon;timestamp;P1;durP1;ratioP1;P2;durP2;ratioP2
63370;SDS011;49504;48.336;14.472;2023-04-29T00:01:54;4.13;;;2.88;;
63370;SDS011;49504;48.336;14.472;2023-04-29T00:05:15;4.93;;;3.20;;
63370;SDS011;49504;48.336;14.472;2023-04-29T00:08:36;4.90;;;3.30;;
63370;SDS011;49504;48.336;14.472;2023-04-29T00:11:59;4.70;;;3.40;;
63370;SDS011;49504;48.336;14.472;2023-04-29T00:15:20;4.70;;;2.90;;
63370;SDS011;49504;48.336;14.472;2023-04-29T00:18:41;5.78;;;3.05;;
63370;SDS011;49504;48.336;14.472;2023-04-29T00:22:02;4.93;;;3.40;;
63370;SDS011;49504;48.336;14.472;2023-04-29T00:25:23;5.05;;;3.33;;
63370;SDS011;49504;48.336;14.472;2023-04-29T00:28:46;4.75;;;2.92;;
63370;SDS011;49504;48.336;14.472;2023-04-29T00:32:07;4.07;;;2.80;;
63370;SDS011;49504;48.336;14.472;2023-04-29T00:35:28;4.70;;;3.20;;
63370;SDS011;49504;48.336;14.472;2023-04-29T00:38:49;4.60;;;3.00;;
63370;SDS011;49504;48.336;14.472;2023-04-29T00:42:10;4.15;;;2.75;;
63370;SDS011;49504;48.336;14.472;2023-04-29T00:45:33;4.55;;;3.05;;
63370;SDS011;49504;48.336;14.472;2023-04-29T00:52:07;4.45;;;3.03;;
63370;SDS011;49504;48.336;14.472;2023-04-29T00:55:31;4.57;;;2.80;;
63370;SDS011;49504;48.336;14.472;2023-04-29T00:58:52;4.40;;;2.65;;
63370;SDS011;49504;48.336;14.472;2023-04-29T01:02:14;5.60;;;3.35;;
63370;SDS011;49504;48.336;14.472;2023-04-29T01:05:36;4.15;;;2.83;;
63370;SDS011;49504;48.336;14.472;2023-04-29T01:09:03;4.82;;;3.35;;
63370;SDS011;49504;48.336;14.472;2023-04-29T01:12:39;4.70;;;3.08;;
63370;SDS011;49504;48.336;14.472;2023-04-29T01:16:22;4.07;;;2.70;;
63370;SDS011;49504;48.336;14.472;2023-04-29T01:19:49;4.30;;;2.80;;
63370;SDS011;49504;48.336;14.472;2023-04-29T01:23:15;3.88;;;2.50;;
63370;SDS011;49504;48.336;14.472;2023-04-29T01:26:37;4.65;;;2.90;;
63370;SDS011;49504;48.336;14.472;2023-04-29T01:30:08;4.70;;;2.55;;
63370;SDS011;49504;48.336;14.472;2023-04-29T01:33:39;4.30;;;2.72;;
63370;SDS011;49504;48.336;14.472;2023-04-29T01:37:09;4.13;;;2.70;;
63370;SDS011;49504;48.336;14.472;2023-04-29T01:40:42;4.63;;;2.70;;
63370;SDS011;49504;48.336;14.472;2023-04-29T01:44:41;5.78;;;2.97;;
63370;SDS011;49504;48.336;14.472;2023-04-29T01:48:04;4.53;;;2.77;;
63370;SDS011;49504;48.336;14.472;2023-04-29T01:51:26;5.22;;;2.80;;
63370;SDS011;49504;48.336;14.472;2023-04-29T01:54:47;3.95;;;2.67;;
63370;SDS011;49504;48.336;14.472;2023-04-29T01:58:09;4.15;;;2.60;;
63370;SDS011;49504;48.336;14.472;2023-04-29T02:02:01;4.03;;;2.20;;
63370;SDS011;49504;48.336;14.472;2023-04-29T02:05:22;3.83;;;2.40;;
63370;SDS011;49504;48.336;14.472;2023-04-29T02:08:48;4.60;;;2.63;;
63370;SDS011;49504;48.336;14.472;2023-04-29T02:12:10;4.32;;;2.58;;
63370;SDS011;49504;48.336;14.472;2023-04-29T02:15:31;4.78;;;3.03;;
63370;SDS011;49504;48.336;14.472;2023-04-29T02:18:54;3.90;;;2.20;;
63370;SDS011;49504;48.336;14.472;2023-04-29T02:22:15;3.78;;;2.53;;
63370;SDS011;49504;48.336;14.472;2023-04-29T02:25:36;4.05;;;2.45;;
63370;SDS011;49504;48.336;14.472;2023-04-29T02:28:57;4.05;;;2.83;;
63370;SDS011;49504;48.336;14.472;2023-04-29T02:32:19;4.63;;;2.88;;
63370;SDS011;49504;48.336;14.472;2023-04-29T02:35:41;4.68;;;2.90;;
63370;SDS011;49504;48.336;14.472;2023-04-29T02:39:02;4.10;;;2.70;;
63370;SDS011;49504;48.336;14.472;2023-04-29T02:42:23;4.40;;;2.90;;
63370;SDS011;49504;48.336;14.472;2023-04-29T02:48:19;3.90;;;2.40;;
63370;SDS011;49504;48.336;14.472;2023-04-29T02:51:41;4.25;;;2.83;;
63370;SDS011;49504;48.336;14.472;2023-04-29T02:55:02;4.20;;;2.90;;
63370;SDS011;49504;48.336;14.472;2023-04-29T02:58:24;4.53;;;2.65;;
63370;SDS011;49504;48.336;14.472;2023-04-29T03:01:46;5.05;;;2.97;;
63370;SDS011;49504;48.336;14.472;2023-04-29T03:05:08;4.47;;;2.78;;
63370;SDS011;49504;48.336;14.472;2023-04-29T03:08:30;4.32;;;2.83;;
63370;SDS011;49504;48.336;14.472;2023-04-29T03:11:51;4.30;;;2.78;;
63370;SDS011;49504;48.336;14.472;2023-04-29T03:18:06;5.38;;;2.72;;
63370;SDS011;49504;48.336;14.472;2023-04-29T03:22:23;4.68;;;2.92;;
63370;SDS011;49504;48.336;14.472;2023-04-29T03:25:44;4.63;;;3.55;;
63370;SDS011;49504;48.336;14.472;2023-04-29T03:29:05;4.90;;;2.90;;
63370;SDS011;49504;48.336;14.472;2023-04-29T03:32:27;5.05;;;3.20;;
63370;SDS011;49504;48.336;14.472;2023-04-29T03:35:48;4.63;;;2.83;;
63370;SDS011;49504;48.336;14.472;2023-04-29T03:39:11;4.68;;;2.80;;
63370;SDS011;49504;48.336;14.472;2023-04-29T03:42:32;4.55;;;3.25;;
63370;SDS011;49504;48.336;14.472;2023-04-29T03:45:53;4.45;;;3.15;;
63370;SDS011;49504;48.336;14.472;2023-04-29T03:49:16;5.03;;;3.50;;
63370;SDS011;49504;48.336;14.472;2023-04-29T03:52:38;4.95;;;3.22;;
63370;SDS011;49504;48.336;14.472;2023-04-29T03:56:07;6.80;;;3.22;;
63370;SDS011;49504;48.336;14.472;2023-04-29T03:59:28;5.00;;;3.50;;
63370;SDS011;49504;48.336;14.472;2023-04-29T04:02:49;4.70;;;3.08;;
63370;SDS011;49504;48.336;14.472;2023-04-29T04:06:11;4.60;;;3.17;;
63370;SDS011;49504;48.336;14.472;2023-04-29T04:11:30;5.32;;;2.67;;
63370;SDS011;49504;48.336;14.472;2023-04-29T04:14:55;5.80;;;3.67;;
63370;SDS011;49504;48.336;14.472;2023-04-29T04:18:16;4.43;;;3.05;;
63370;SDS011;49504;48.336;14.472;2023-04-29T04:21:52;5.55;;;3.50;;
63370;SDS011;49504;48.336;14.472;2023-04-29T04:25:13;5.07;;;3.72;;
63370;SDS011;49504;48.336;14.472;2023-04-29T04:28:34;5.90;;;4.03;;
63370;SDS011;49504;48.336;14.472;2023-04-29T04:32:00;5.45;;;3.95;;
63370;SDS011;49504;48.336;14.472;2023-04-29T04:35:21;5.22;;;3.78;;
63370;SDS011;49504;48.336;14.472;2023-04-29T04:38:44;5.20;;;3.60;;
63370;SDS011;49504;48.336;14.472;2023-04-29T04:42:06;5.53;;;3.88;;
63370;SDS011;49504;48.336;14.472;2023-04-29T04:45:29;4.97;;;3.55;;
63370;SDS011;49504;48.336;14.472;2023-04-29T04:48:50;5.55;;;3.75;;
63370;SDS011;49504;48.336;14.472;2023-04-29T04:52:13;5.07;;;3.80;;
63370;SDS011;49504;48.336;14.472;2023-04-29T04:55:38;5.28;;;3.80;;
63370;SDS011;49504;48.336;14.472;2023-04-29T05:01:28;5.22;;;3.70;;
63370;SDS011;49504;48.336;14.472;2023-04-29T05:04:50;5.63;;;3.63;;
63370;SDS011;49504;48.336;14.472;2023-04-29T05:08:13;28.17;;;4.35;;
63370;SDS011;49504;48.336;14.472;2023-04-29T05:11:38;5.82;;;3.83;;
63370;SDS011;49504;48.336;14.472;2023-04-29T05:15:06;5.75;;;3.83;;
63370;SDS011;49504;48.336;14.472;2023-04-29T05:18:30;6.70;;;3.45;;
63370;SDS011;49504;48.336;14.472;2023-04-29T05:25:15;6.47;;;4.07;;
63370;SDS011;49504;48.336;14.472;2023-04-29T05:28:40;7.82;;;4.82;;
63370;SDS011;49504;48.336;14.472;2023-04-29T05:32:03;8.98;;;4.80;;
63370;SDS011;49504;48.336;14.472;2023-04-29T05:36:15;8.80;;;4.78;;
63370;SDS011;49504;48.336;14.472;2023-04-29T05:39:36;6.28;;;3.80;;
63370;SDS011;49504;48.336;14.472;2023-04-29T05:43:04;5.82;;;3.67;;
63370;SDS011;49504;48.336;14.472;2023-04-29T05:46:25;8.02;;;3.90;;
63370;SDS011;49504;48.336;14.472;2023-04-29T05:49:47;8.68;;;4.22;;
63370;SDS011;49504;48.336;14.472;2023-04-29T05:53:10;7.00;;;4.38;;
63370;SDS011;49504;48.336;14.472;2023-04-29T05:56:32;10.43;;;4.43;;
63370;SDS011;49504;48.336;14.472;2023-04-29T05:59:57;7.10;;;4.13;;
63370;SDS011;49504;48.336;14.472;2023-04-29T06:03:34;6.20;;;3.78;;
63370;SDS011;49504;48.336;14.472;2023-04-29T06:07:27;7.20;;;4.68;;
63370;SDS011;49504;48.336;14.472;2023-04-29T06:10:54;8.93;;;4.63;;
63370;SDS011;49504;48.336;14.472;2023-04-29T06:14:16;7.35;;;4.55;;
63370;SDS011;49504;48.336;14.472;2023-04-29T06:17:37;6.75;;;4.15;;
63370;SDS011;49504;48.336;14.472;2023-04-29T06:20:58;9.40;;;4.75;;
63370;SDS011;49504;48.336;14.472;2023-04-29T06:24:19;7.82;;;4.32;;
63370;SDS011;49504;48.336;14.472;2023-04-29T06:27:42;8.80;;;4.20;;
63370;SDS011;49504;48.336;14.472;2023-04-29T06:31:03;8.57;;;4.43;;
63370;SDS011;49504;48.336;14.472;2023-04-29T06:34:28;7.65;;;4.15;;
63370;SDS011;49504;48.336;14.472;2023-04-29T06:38:10;8.23;;;4.35;;
63370;SDS011;49504;48.336;14.472;2023-04-29T06:42:04;8.52;;;4.57;;
63370;SDS011;49504;48.336;14.472;2023-04-29T06:45:59;11.40;;;4.90;;
63370;SDS011;49504;48.336;14.472;2023-04-29T06:49:44;8.45;;;4.97;;
63370;SDS011;49504;48.336;14.472;2023-04-29T06:53:06;10.77;;;5.82;;
63370;SDS011;49504;48.336;14.472;2023-04-29T06:56:27;7.97;;;4.80;;
63370;SDS011;49504;48.336;14.472;2023-04-29T06:59:48;9.43;;;5.35;;
63370;SDS011;49504;48.336;14.472;2023-04-29T07:03:11;10.30;;;5.03;;
63370;SDS011;49504;48.336;14.472;2023-04-29T07:06:32;7.03;;;4.60;;
63370;SDS011;49504;48.336;14.472;2023-04-29T07:10:59;9.10;;;4.30;;
63370;SDS011;49504;48.336;14.472;2023-04-29T07:14:20;8.27;;;5.05;;
63370;SDS011;49504;48.336;14.472;2023-04-29T07:17:41;8.32;;;4.70;;
63370;SDS011;49504;48.336;14.472;2023-04-29T07:21:02;8.20;;;5.05;;
63370;SDS011;49504;48.336;14.472;2023-04-29T07:26:09;9.93;;;4.75;;
63370;SDS011;49504;48.336;14.472;2023-04-29T07:29:31;8.50;;;4.72;;
63370;SDS011;49504;48.336;14.472;2023-04-29T07:32:53;8.75;;;4.97;;
63370;SDS011;49504;48.336;14.472;2023-04-29T07:36:14;7.78;;;4.93;;
63370;SDS011;49504;48.336;14.472;2023-04-29T07:39:35;8.18;;;5.00;;
63370;SDS011;49504;48.336;14.472;2023-04-29T07:42:58;7.78;;;4.70;;
63370;SDS011;49504;48.336;14.472;2023-04-29T07:46:19;7.00;;;3.90;;
63370;SDS011;49504;48.336;14.472;2023-04-29T07:49:40;6.90;;;4.35;;
63370;SDS011;49504;48.336;14.472;2023-04-29T07:53:02;7.90;;;4.93;;
63370;SDS011;49504;48.336;14.472;2023-04-29T07:56:24;9.82;;;5.32;;
63370;SDS011;49504;48.336;14.472;2023-04-29T07:59:47;10.32;;;5.63;;
63370;SDS011;49504;48.336;14.472;2023-04-29T08:03:11;9.45;;;5.28;;
63370;SDS011;49504;48.336;14.472;2023-04-29T08:06:33;8.23;;;5.18;;
63370;SDS011;49504;48.336;14.472;2023-04-29T08:09:54;10.80;;;5.95;;
63370;SDS011;49504;48.336;14.472;2023-04-29T08:13:15;9.50;;;5.80;;
63370;SDS011;49504;48.336;14.472;2023-04-29T08:16:37;9.00;;;6.05;;
63370;SDS011;49504;48.336;14.472;2023-04-29T08:19:59;10.93;;;5.40;;
63370;SDS011;49504;48.336;14.472;2023-04-29T08:23:20;10.45;;;6.00;;
63370;SDS011;49504;48.336;14.472;2023-04-29T08:26:41;8.73;;;5.20;;
63370;SDS011;49504;48.336;14.472;2023-04-29T08:30:02;9.10;;;5.88;;
63370;SDS011;49504;48.336;14.472;2023-04-29T08:33:26;9.95;;;6.03;;
63370;SDS011;49504;48.336;14.472;2023-04-29T08:36:48;11.35;;;6.18;;
63370;SDS011;49504;48.336;14.472;2023-04-29T08:41:46;10.38;;;6.80;;
63370;SDS011;49504;48.336;14.472;2023-04-29T08:45:08;11.80;;;6.60;;
63370;SDS011;49504;48.336;14.472;2023-04-29T08:48:29;8.98;;;6.13;;
63370;SDS011;49504;48.336;14.472;2023-04-29T08:54:31;9.82;;;6.07;;
63370;SDS011;49504;48.336;14.472;2023-04-29T08:57:52;7.95;;;5.30;;
63370;SDS011;49504;48.336;14.472;2023-04-29T09:01:15;9.48;;;5.35;;
63370;SDS011;49504;48.336;14.472;2023-04-29T09:04:40;9.07;;;6.03;;
63370;SDS011;49504;48.336;14.472;2023-04-29T09:08:07;9.65;;;6.03;;
63370;SDS011;49504;48.336;14.472;2023-04-29T09:11:31;9.65;;;5.95;;
63370;SDS011;49504;48.336;14.472;2023-04-29T09:14:53;8.70;;;5.43;;
63370;SDS011;49504;48.336;14.472;2023-04-29T09:22:05;9.15;;;5.65;;
63370;SDS011;49504;48.336;14.472;2023-04-29T09:25:26;8.10;;;5.18;;
63370;SDS011;49504;48.336;14.472;2023-04-29T09:28:51;10.43;;;5.88;;
63370;SDS011;49504;48.336;14.472;2023-04-29T09:32:26;8.48;;;5.25;;
63370;SDS011;49504;48.336;14.472;2023-04-29T09:35:47;8.15;;;4.97;;
63370;SDS011;49504;48.336;14.472;2023-04-29T09:39:09;8.07;;;5.28;;
63370;SDS011;49504;48.336;14.472;2023-04-29T09:42:40;7.57;;;5.20;;
63370;SDS011;49504;48.336;14.472;2023-04-29T09:46:03;8.02;;;5.32;;
63370;SDS011;49504;48.336;14.472;2023-04-29T09:49:24;7.38;;;5.15;;
63370;SDS011;49504;48.336;14.472;2023-04-29T09:52:47;8.57;;;5.40;;
63370;SDS011;49504;48.336;14.472;2023-04-29T09:56:08;8.43;;;5.50;;
63370;SDS011;49504;48.336;14.472;2023-04-29T09:59:29;7.72;;;5.25;;
63370;SDS011;49504;48.336;14.472;2023-04-29T10:02:52;8.90;;;4.75;;
63370;SDS011;49504;48.336;14.472;2023-04-29T10:06:16;8.05;;;5.10;;
63370;SDS011;49504;48.336;14.472;2023-04-29T10:09:37;7.07;;;4.63;;
63370;SDS011;49504;48.336;14.472;2023-04-29T10:12:59;7.20;;;4.95;;
63370;SDS011;49504;48.336;14.472;2023-04-29T10:17:28;6.53;;;4.22;;
63370;SDS011;49504;48.336;14.472;2023-04-29T10:20:56;8.88;;;5.38;;
63370;SDS011;49504;48.336;14.472;2023-04-29T10:24:19;8.30;;;5.03;;
63370;SDS011;49504;48.336;14.472;2023-04-29T10:27:42;8.10;;;5.03;;
63370;SDS011;49504;48.336;14.472;2023-04-29T10:31:04;7.88;;;5.22;;
63370;SDS011;49504;48.336;14.472;2023-04-29T10:34:28;7.85;;;4.78;;
63370;SDS011;49504;48.336;14.472;2023-04-29T10:37:50;7.38;;;4.43;;
63370;SDS011;49504;48.336;14.472;2023-04-29T10:41:14;8.73;;;4.90;;
63370;SDS011;49504;48.336;14.472;2023-04-29T10:48:43;6.28;;;4.15;;
63370;SDS011;49504;48.336;14.472;2023-04-29T10:52:06;9.93;;;4.65;;
63370;SDS011;49504;48.336;14.472;2023-04-29T10:55:27;7.70;;;4.90;;
63370;SDS011;49504;48.336;14.472;2023-04-29T10:58:49;7.32;;;4.82;;
63370;SDS011;49504;48.336;14.472;2023-04-29T11:02:10;6.28;;;4.18;;
63370;SDS011;49504;48.336;14.472;2023-04-29T11:05:32;7.28;;;4.32;;
63370;SDS011;49504;48.336;14.472;2023-04-29T11:09:03;5.82;;;4.00;;
63370;SDS011;49504;48.336;14.472;2023-04-29T11:12:28;5.80;;;3.50;;
63370;SDS011;49504;48.336;14.472;2023-04-29T11:15:49;5.72;;;3.35;;
63370;SDS011;49504;48.336;14.472;2023-04-29T11:19:13;5.82;;;3.42;;
63370;SDS011;49504;48.336;14.472;2023-04-29T11:22:36;6.18;;;3.15;;
63370;SDS011;49504;48.336;14.472;2023-04-29T11:40:13;5.47;;;2.60;;
63370;SDS011;49504;48.336;14.472;2023-04-29T11:44:31;5.35;;;2.65;;
63370;SDS011;49504;48.336;14.472;2023-04-29T11:47:53;4.45;;;2.40;;
63370;SDS011;49504;48.336;14.472;2023-04-29T11:51:15;3.95;;;1.95;;
63370;SDS011;49504;48.336;14.472;2023-04-29T11:54:37;5.13;;;2.50;;
63370;SDS011;49504;48.336;14.472;2023-04-29T11:58:02;4.10;;;2.08;;
63370;SDS011;49504;48.336;14.472;2023-04-29T12:01:25;3.70;;;1.80;;
63370;SDS011;49504;48.336;14.472;2023-04-29T12:04:46;5.43;;;2.40;;
63370;SDS011;49504;48.336;14.472;2023-04-29T12:08:08;5.20;;;2.33;;
63370;SDS011;49504;48.336;14.472;2023-04-29T12:11:29;4.20;;;1.90;;
63370;SDS011;49504;48.336;14.472;2023-04-29T12:14:51;3.75;;;2.03;;
63370;SDS011;49504;48.336;14.472;2023-04-29T12:18:15;4.00;;;1.98;;
63370;SDS011;49504;48.336;14.472;2023-04-29T12:21:46;5.38;;;2.50;;
63370;SDS011;49504;48.336;14.472;2023-04-29T12:25:09;4.65;;;2.30;;
63370;SDS011;49504;48.336;14.472;2023-04-29T12:28:30;4.18;;;2.30;;
63370;SDS011;49504;48.336;14.472;2023-04-29T12:31:52;5.32;;;2.50;;
63370;SDS011;49504;48.336;14.472;2023-04-29T12:35:17;4.72;;;1.92;;
63370;SDS011;49504;48.336;14.472;2023-04-29T12:38:38;7.85;;;2.65;;
63370;SDS011;49504;48.336;14.472;2023-04-29T12:42:02;4.53;;;2.20;;
63370;SDS011;49504;48.336;14.472;2023-04-29T12:45:26;4.55;;;2.28;;
63370;SDS011;49504;48.336;14.472;2023-04-29T12:48:50;4.57;;;2.13;;
63370;SDS011;49504;48.336;14.472;2023-04-29T12:52:13;4.40;;;2.05;;
63370;SDS011;49504;48.336;14.472;2023-04-29T12:55:35;4.03;;;2.10;;
63370;SDS011;49504;48.336;14.472;2023-04-29T12:59:03;4.15;;;2.20;;
63370;SDS011;49504;48.336;14.472;2023-04-29T13:04:09;4.10;;;2.25;;
63370;SDS011;49504;48.336;14.472;2023-04-29T13:07:30;4.18;;;2.05;;
63370;SDS011;49504;48.336;14.472;2023-04-29T13:10:52;3.58;;;1.77;;
63370;SDS011;49504;48.336;14.472;2023-04-29T13:14:13;5.63;;;2.00;;
63370;SDS011;49504;48.336;14.472;2023-04-29T13:17:34;4.28;;;2.30;;
63370;SDS011;49504;48.336;14.472;2023-04-29T13:20:57;4.68;;;2.13;;
63370;SDS011;49504;48.336;14.472;2023-04-29T13:25:01;5.43;;;2.58;;
63370;SDS011;49504;48.336;14.472;2023-04-29T13:28:22;4.18;;;2.00;;
63370;SDS011;49504;48.336;14.472;2023-04-29T13:31:44;3.65;;;1.80;;
63370;SDS011;49504;48.336;14.472;2023-04-29T13:35:05;5.65;;;2.20;;
63370;SDS011;49504;48.336;14.472;2023-04-29T13:40:39;4.22;;;2.38;;
63370;SDS011;49504;48.336;14.472;2023-04-29T13:44:00;4.25;;;2.00;;
63370;SDS011;49504;48.336;14.472;2023-04-29T13:47:21;4.45;;;2.20;;
63370;SDS011;49504;48.336;14.472;2023-04-29T13:52:09;7.20;;;3.00;;
63370;SDS011;49504;48.336;14.472;2023-04-29T13:55:31;3.50;;;1.60;;
63370;SDS011;49504;48.336;14.472;2023-04-29T13:58:52;4.22;;;2.10;;
63370;SDS011;49504;48.336;14.472;2023-04-29T14:02:13;4.32;;;1.77;;
63370;SDS011;49504;48.336;14.472;2023-04-29T14:05:34;4.30;;;2.00;;
63370;SDS011;49504;48.336;14.472;2023-04-29T14:08:57;3.70;;;1.90;;
63370;SDS011;49504;48.336;14.472;2023-04-29T14:12:18;4.55;;;1.98;;
63370;SDS011;49504;48.336;14.472;2023-04-29T14:15:39;5.22;;;2.22;;
63370;SDS011;49504;48.336;14.472;2023-04-29T14:19:00;4.32;;;2.17;;
63370;SDS011;49504;48.336;14.472;2023-04-29T14:22:22;4.22;;;1.95;;
63370;SDS011;49504;48.336;14.472;2023-04-29T14:25:44;4.10;;;1.77;;
63370;SDS011;49504;48.336;14.472;2023-04-29T14:29:05;3.78;;;1.75;;
63370;SDS011;49504;48.336;14.472;2023-04-29T14:33:13;3.30;;;1.73;;
63370;SDS011;49504;48.336;14.472;2023-04-29T14:36:34;3.78;;;2.00;;
63370;SDS011;49504;48.336;14.472;2023-04-29T14:42:36;3.72;;;1.88;;
63370;SDS011;49504;48.336;14.472;2023-04-29T14:45:57;4.18;;;1.88;;
63370;SDS011;49504;48.336;14.472;2023-04-29T14:49:18;3.33;;;1.52;;
63370;SDS011;49504;48.336;14.472;2023-04-29T14:52:39;3.67;;;1.70;;
63370;SDS011;49504;48.336;14.472;2023-04-29T14:56:01;4.22;;;1.60;;
63370;SDS011;49504;48.336;14.472;2023-04-29T14:59:23;3.85;;;1.60;;
63370;SDS011;49504;48.336;14.472;2023-04-29T15:02:44;3.50;;;1.80;;
63370;SDS011;49504;48.336;14.472;2023-04-29T15:06:06;3.72;;;1.70;;
63370;SDS011;49504;48.336;14.472;2023-04-29T15:09:27;3.47;;;1.63;;
63370;SDS011;49504;48.336;14.472;2023-04-29T15:12:48;4.13;;;1.63;;
63370;SDS011;49504;48.336;14.472;2023-04-29T15:16:11;3.65;;;1.63;;
63370;SDS011;49504;48.336;14.472;2023-04-29T15:19:33;3.28;;;1.52;;
63370;SDS011;49504;48.336;14.472;2023-04-29T15:22:54;3.72;;;1.83;;
63370;SDS011;49504;48.336;14.472;2023-04-29T15:26:16;5.25;;;2.00;;
63370;SDS011;49504;48.336;14.472;2023-04-29T15:29:37;3.22;;;1.58;;
63370;SDS011;49504;48.336;14.472;2023-04-29T15:33:00;3.25;;;1.50;;
63370;SDS011;49504;48.336;14.472;2023-04-29T15:36:25;3.33;;;1.60;;
63370;SDS011;49504;48.336;14.472;2023-04-29T15:39:49;3.67;;;1.60;;
63370;SDS011;49504;48.336;14.472;2023-04-29T15:43:11;3.65;;;1.77;;
63370;SDS011;49504;48.336;14.472;2023-04-29T15:46:32;2.85;;;1.27;;
63370;SDS011;49504;48.336;14.472;2023-04-29T15:49:55;3.05;;;1.33;;
63370;SDS011;49504;48.336;14.472;2023-04-29T15:53:16;3.35;;;1.50;;
63370;SDS011;49504;48.336;14.472;2023-04-29T15:56:39;3.28;;;1.40;;
63370;SDS011;49504;48.336;14.472;2023-04-29T16:00:01;3.13;;;1.50;;
63370;SDS011;49504;48.336;14.472;2023-04-29T16:03:25;2.78;;;1.10;;
63370;SDS011;49504;48.336;14.472;2023-04-29T16:06:48;3.63;;;1.40;;
63370;SDS011;49504;48.336;14.472;2023-04-29T16:10:09;3.47;;;1.40;;
63370;SDS011;49504;48.336;14.472;2023-04-29T16:13:30;3.30;;;1.60;;
63370;SDS011;49504;48.336;14.472;2023-04-29T16:18:14;3.45;;;1.45;;
63370;SDS011;49504;48.336;14.472;2023-04-29T16:21:35;3.10;;;1.45;;
63370;SDS011;49504;48.336;14.472;2023-04-29T16:24:56;3.33;;;1.60;;
63370;SDS011;49504;48.336;14.472;2023-04-29T16:28:17;3.50;;;1.55;;
63370;SDS011;49504;48.336;14.472;2023-04-29T16:32:56;4.28;;;1.65;;
63370;SDS011;49504;48.336;14.472;2023-04-29T16:36:18;3.65;;;1.70;;
63370;SDS011;49504;48.336;14.472;2023-04-29T16:39:39;5.65;;;2.17;;
63370;SDS011;49504;48.336;14.472;2023-04-29T16:43:00;6.95;;;3.25;;
63370;SDS011;49504;48.336;14.472;2023-04-29T16:46:21;6.03;;;3.03;;
63370;SDS011;49504;48.336;14.472;2023-04-29T16:49:44;5.65;;;2.90;;
63370;SDS011;49504;48.336;14.472;2023-04-29T16:53:06;5.15;;;2.90;;
63370;SDS011;49504;48.336;14.472;2023-04-29T16:56:27;7.65;;;3.08;;
63370;SDS011;49504;48.336;14.472;2023-04-29T16:59:48;6.90;;;2.97;;
63370;SDS011;49504;48.336;14.472;2023-04-29T17:03:09;4.55;;;2.45;;
63370;SDS011;49504;48.336;14.472;2023-04-29T17:06:32;4.97;;;2.38;;
63370;SDS011;49504;48.336;14.472;2023-04-29T17:09:53;5.18;;;2.30;;
63370;SDS011;49504;48.336;14.472;2023-04-29T17:13:14;4.20;;;1.88;;
63370;SDS011;49504;48.336;14.472;2023-04-29T17:16:36;4.72;;;2.53;;
63370;SDS011;49504;48.336;14.472;2023-04-29T17:19:57;5.18;;;2.50;;
63370;SDS011;49504;48.336;14.472;2023-04-29T17:23:19;4.97;;;2.55;;
63370;SDS011;49504;48.336;14.472;2023-04-29T17:26:40;4.65;;;2.28;;
63370;SDS011;49504;48.336;14.472;2023-04-29T17:30:01;4.75;;;2.15;;
63370;SDS011;49504;48.336;14.472;2023-04-29T17:33:23;4.88;;;2.40;;
63370;SDS011;49504;48.336;14.472;2023-04-29T17:36:44;4.82;;;2.58;;
63370;SDS011;49504;48.336;14.472;2023-04-29T17:40:07;4.65;;;2.03;;
63370;SDS011;49504;48.336;14.472;2023-04-29T17:43:29;4.13;;;2.10;;
63370;SDS011;49504;48.336;14.472;2023-04-29T17:46:50;5.28;;;2.20;;
63370;SDS011;49504;48.336;14.472;2023-04-29T17:50:11;4.68;;;2.40;;
63370;SDS011;49504;48.336;14.472;2023-04-29T17:53:32;3.83;;;1.85;;
63370;SDS011;49504;48.336;14.472;2023-04-29T17:56:55;5.95;;;2.40;;
63370;SDS011;49504;48.336;14.472;2023-04-29T18:00:16;4.80;;;2.22;;
63370;SDS011;49504;48.336;14.472;2023-04-29T18:03:38;5.25;;;2.45;;
63370;SDS011;49504;48.336;14.472;2023-04-29T18:06:59;6.10;;;2.40;;
63370;SDS011;49504;48.336;14.472;2023-04-29T18:10:20;4.18;;;1.92;;
63370;SDS011;49504;48.336;14.472;2023-04-29T18:13:43;4.68;;;2.17;;
63370;SDS011;49504;48.336;14.472;2023-04-29T18:17:04;4.25;;;2.08;;
63370;SDS011;49504;48.336;14.472;2023-04-29T18:20:25;4.28;;;2.20;;
63370;SDS011;49504;48.336;14.472;2023-04-29T18:23:46;4.65;;;2.38;;
63370;SDS011;49504;48.336;14.472;2023-04-29T18:27:07;4.13;;;2.17;;
63370;SDS011;49504;48.336;14.472;2023-04-29T18:30:30;3.88;;;1.92;;
63370;SDS011;49504;48.336;14.472;2023-04-29T18:36:03;4.32;;;2.25;;
63370;SDS011;49504;48.336;14.472;2023-04-29T18:41:36;4.72;;;2.10;;
63370;SDS011;49504;48.336;14.472;2023-04-29T18:44:58;4.25;;;2.53;;
63370;SDS011;49504;48.336;14.472;2023-04-29T18:48:19;5.38;;;2.78;;
63370;SDS011;49504;48.336;14.472;2023-04-29T18:51:41;4.65;;;2.08;;
63370;SDS011;49504;48.336;14.472;2023-04-29T18:55:03;4.30;;;1.98;;
63370;SDS011;49504;48.336;14.472;2023-04-29T18:58:27;4.45;;;2.25;;
63370;SDS011;49504;48.336;14.472;2023-04-29T19:01:48;3.63;;;2.00;;
63370;SDS011;49504;48.336;14.472;2023-04-29T19:05:09;6.35;;;2.50;;
63370;SDS011;49504;48.336;14.472;2023-04-29T19:08:30;4.72;;;2.72;;
63370;SDS011;49504;48.336;14.472;2023-04-29T19:11:52;4.13;;;2.30;;
63370;SDS011;49504;48.336;14.472;2023-04-29T19:15:15;4.30;;;2.25;;
63370;SDS011;49504;48.336;14.472;2023-04-29T19:18:36;4.35;;;2.40;;
63370;SDS011;49504;48.336;14.472;2023-04-29T19:21:57;4.35;;;2.42;;
63370;SDS011;49504;48.336;14.472;2023-04-29T19:25:19;4.80;;;2.40;;
63370;SDS011;49504;48.336;14.472;2023-04-29T19:28:40;4.70;;;2.53;;
63370;SDS011;49504;48.336;14.472;2023-04-29T19:33:36;4.35;;;2.55;;
63370;SDS011;49504;48.336;14.472;2023-04-29T19:37:35;6.05;;;2.13;;
63370;SDS011;49504;48.336;14.472;2023-04-29T19:42:56;4.18;;;2.20;;
63370;SDS011;49504;48.336;14.472;2023-04-29T19:46:17;4.13;;;2.38;;
63370;SDS011;49504;48.336;14.472;2023-04-29T19:49:38;5.10;;;2.15;;
63370;SDS011;49504;48.336;14.472;2023-04-29T19:52:59;4.63;;;2.60;;
63370;SDS011;49504;48.336;14.472;2023-04-29T19:56:20;6.25;;;2.42;;
63370;SDS011;49504;48.336;14.472;2023-04-29T19:59:43;4.30;;;2.38;;
63370;SDS011;49504;48.336;14.472;2023-04-29T20:03:04;4.90;;;2.67;;
63370;SDS011;49504;48.336;14.472;2023-04-29T20:06:25;4.05;;;2.20;;
63370;SDS011;49504;48.336;14.472;2023-04-29T20:09:46;4.25;;;2.20;;
63370;SDS011;49504;48.336;14.472;2023-04-29T20:13:08;3.83;;;2.20;;
63370;SDS011;49504;48.336;14.472;2023-04-29T20:16:30;5.25;;;2.88;;
63370;SDS011;49504;48.336;14.472;2023-04-29T20:19:51;5.32;;;2.67;;
63370;SDS011;49504;48.336;14.472;2023-04-29T20:23:12;3.88;;;2.25;;
63370;SDS011;49504;48.336;14.472;2023-04-29T20:26:34;4.10;;;2.42;;
63370;SDS011;49504;48.336;14.472;2023-04-29T20:29:55;4.97;;;2.38;;
63370;SDS011;49504;48.336;14.472;2023-04-29T20:33:17;3.90;;;2.10;;
63370;SDS011;49504;48.336;14.472;2023-04-29T20:36:38;4.30;;;2.45;;
63370;SDS011;49504;48.336;14.472;2023-04-29T20:39:59;3.90;;;2.20;;
63370;SDS011;49504;48.336;14.472;2023-04-29T20:43:21;4.50;;;2.60;;
63370;SDS011;49504;48.336;14.472;2023-04-29T20:46:42;4.38;;;2.60;;
63370;SDS011;49504;48.336;14.472;2023-04-29T20:50:05;4.10;;;2.20;;
63370;SDS011;49504;48.336;14.472;2023-04-29T20:53:26;4.35;;;2.40;;
63370;SDS011;49504;48.336;14.472;2023-04-29T20:56:47;4.20;;;2.58;;
63370;SDS011;49504;48.336;14.472;2023-04-29T21:00:09;4.65;;;2.65;;
63370;SDS011;49504;48.336;14.472;2023-04-29T21:03:31;4.15;;;2.35;;
63370;SDS011;49504;48.336;14.472;2023-04-29T21:06:54;5.07;;;2.63;;
63370;SDS011;49504;48.336;14.472;2023-04-29T21:10:15;4.72;;;2.78;;
63370;SDS011;49504;48.336;14.472;2023-04-29T21:13:36;5.10;;;2.50;;